sensor_id;sensor_type;location;lat;lon;timestamp;P1;durP1;ratioP1;P2;durP2;ratioP2
20138;SDS011;10230;51.502;10.800;2022-12-18T00:00:53;22.50;;;10.47;;
20138;SDS011;10230;51.502;10.800;2022-12-18T00:03:19;21.37;;;9.10;;
20138;SDS011;10230;51.502;10.800;2022-12-18T00:05:48;15.40;;;7.57;;
20138;SDS011;10230;51.502;10.800;2022-12-18T00:08:15;20.70;;;8.73;;
20138;SDS011;10230;51.502;10.800;2022-12-18T00:10:42;17.63;;;9.17;;
20138;SDS011;10230;51.502;10.800;2022-12-18T00:13:08;13.53;;;8.50;;
20138;SDS011;10230;51.502;10.800;2022-12-18T00:15:34;23.17;;;12.20;;
20138;SDS011;10230;51.502;10.800;2022-12-18T00:18:01;22.90;;;9.40;;
20138;SDS011;10230;51.502;10.800;2022-12-18T00:20:27;20.07;;;9.27;;
20138;SDS011;10230;51.502;10.800;2022-12-18T00:22:52;17.60;;;8.50;;
20138;SDS011;10230;51.502;10.800;2022-12-18T00:25:18;25.23;;;10.20;;
20138;SDS011;10230;51.502;10.800;2022-12-18T00:27:44;29.67;;;12.87;;
20138;SDS011;10230;51.502;10.800;2022-12-18T00:30:10;22.77;;;8.10;;
20138;SDS011;10230;51.502;10.800;2022-12-18T00:32:36;20.00;;;8.07;;
20138;SDS011;10230;51.502;10.800;2022-12-18T00:35:02;18.50;;;8.93;;
20138;SDS011;10230;51.502;10.800;2022-12-18T00:37:29;19.93;;;7.83;;
20138;SDS011;10230;51.502;10.800;2022-12-18T00:39:54;19.57;;;10.10;;
20138;SDS011;10230;51.502;10.800;2022-12-18T00:42:20;13.70;;;8.37;;
20138;SDS011;10230;51.502;10.800;2022-12-18T00:45:04;19.90;;;9.90;;
20138;SDS011;10230;51.502;10.800;2022-12-18T00:47:30;20.83;;;9.60;;
20138;SDS011;10230;51.502;10.800;2022-12-18T00:49:55;25.73;;;9.60;;
20138;SDS011;10230;51.502;10.800;2022-12-18T00:52:21;17.03;;;9.27;;
20138;SDS011;10230;51.502;10.800;2022-12-18T00:54:46;19.07;;;8.17;;
20138;SDS011;10230;51.502;10.800;2022-12-18T00:57:12;20.47;;;8.40;;
20138;SDS011;10230;51.502;10.800;2022-12-18T00:59:38;18.57;;;9.57;;
20138;SDS011;10230;51.502;10.800;2022-12-18T01:02:03;16.03;;;8.43;;
20138;SDS011;10230;51.502;10.800;2022-12-18T01:04:31;24.50;;;9.53;;
20138;SDS011;10230;51.502;10.800;2022-12-18T01:06:57;24.10;;;9.63;;
20138;SDS011;10230;51.502;10.800;2022-12-18T01:09:22;19.30;;;8.90;;
20138;SDS011;10230;51.502;10.800;2022-12-18T01:11:48;21.10;;;9.77;;
20138;SDS011;10230;51.502;10.800;2022-12-18T01:14:13;25.77;;;11.67;;
20138;SDS011;10230;51.502;10.800;2022-12-18T01:16:39;19.63;;;8.47;;
20138;SDS011;10230;51.502;10.800;2022-12-18T01:19:05;25.20;;;10.60;;
20138;SDS011;10230;51.502;10.800;2022-12-18T01:21:31;25.37;;;10.33;;
20138;SDS011;10230;51.502;10.800;2022-12-18T01:23:56;22.70;;;9.43;;
20138;SDS011;10230;51.502;10.800;2022-12-18T01:26:22;21.97;;;9.20;;
20138;SDS011;10230;51.502;10.800;2022-12-18T01:28:50;28.63;;;11.83;;
20138;SDS011;10230;51.502;10.800;2022-12-18T01:31:23;21.63;;;9.80;;
20138;SDS011;10230;51.502;10.800;2022-12-18T01:33:50;26.40;;;10.53;;
20138;SDS011;10230;51.502;10.800;2022-12-18T01:38:50;28.53;;;13.23;;
20138;SDS011;10230;51.502;10.800;2022-12-18T01:41:18;30.57;;;13.80;;
20138;SDS011;10230;51.502;10.800;2022-12-18T01:43:53;27.07;;;13.80;;
20138;SDS011;10230;51.502;10.800;2022-12-18T01:46:22;29.47;;;13.17;;
20138;SDS011;10230;51.502;10.800;2022-12-18T01:48:58;35.37;;;9.80;;
20138;SDS011;10230;51.502;10.800;2022-12-18T01:51:26;24.60;;;12.17;;
20138;SDS011;10230;51.502;10.800;2022-12-18T01:53:54;24.57;;;12.03;;
20138;SDS011;10230;51.502;10.800;2022-12-18T01:56:20;20.43;;;9.33;;
20138;SDS011;10230;51.502;10.800;2022-12-18T02:01:12;19.40;;;9.07;;
20138;SDS011;10230;51.502;10.800;2022-12-18T02:03:41;18.33;;;8.33;;
20138;SDS011;10230;51.502;10.800;2022-12-18T02:06:15;19.30;;;8.20;;
20138;SDS011;10230;51.502;10.800;2022-12-18T02:09:01;19.67;;;8.17;;
20138;SDS011;10230;51.502;10.800;2022-12-18T02:11:38;13.83;;;7.83;;
20138;SDS011;10230;51.502;10.800;2022-12-18T02:14:23;25.10;;;7.63;;
20138;SDS011;10230;51.502;10.800;2022-12-18T02:24:58;21.47;;;7.43;;
20138;SDS011;10230;51.502;10.800;2022-12-18T02:27:19;15.50;;;6.23;;
20138;SDS011;10230;51.502;10.800;2022-12-18T02:29:52;18.30;;;8.10;;
20138;SDS011;10230;51.502;10.800;2022-12-18T02:32:26;15.40;;;6.50;;
20138;SDS011;10230;51.502;10.800;2022-12-18T02:34:53;18.73;;;8.20;;
20138;SDS011;10230;51.502;10.800;2022-12-18T02:37:21;16.20;;;7.33;;
20138;SDS011;10230;51.502;10.800;2022-12-18T02:39:48;16.87;;;7.23;;
20138;SDS011;10230;51.502;10.800;2022-12-18T02:42:14;22.83;;;7.70;;
20138;SDS011;10230;51.502;10.800;2022-12-18T02:44:42;20.80;;;7.93;;
20138;SDS011;10230;51.502;10.800;2022-12-18T02:47:10;18.70;;;7.20;;
20138;SDS011;10230;51.502;10.800;2022-12-18T02:55:08;18.17;;;9.10;;
20138;SDS011;10230;51.502;10.800;2022-12-18T02:58:02;18.87;;;8.63;;
20138;SDS011;10230;51.502;10.800;2022-12-18T03:03:14;22.17;;;8.67;;
20138;SDS011;10230;51.502;10.800;2022-12-18T03:05:50;17.37;;;8.47;;
20138;SDS011;10230;51.502;10.800;2022-12-18T03:08:29;19.23;;;8.40;;
20138;SDS011;10230;51.502;10.800;2022-12-18T03:11:03;18.70;;;9.23;;
20138;SDS011;10230;51.502;10.800;2022-12-18T03:13:39;19.53;;;9.10;;
20138;SDS011;10230;51.502;10.800;2022-12-18T03:16:25;19.83;;;8.87;;
20138;SDS011;10230;51.502;10.800;2022-12-18T03:18:56;24.33;;;11.40;;
20138;SDS011;10230;51.502;10.800;2022-12-18T03:21:26;22.93;;;11.73;;
20138;SDS011;10230;51.502;10.800;2022-12-18T03:23:53;22.47;;;9.30;;
20138;SDS011;10230;51.502;10.800;2022-12-18T03:26:21;20.07;;;9.27;;
20138;SDS011;10230;51.502;10.800;2022-12-18T03:28:59;19.50;;;9.10;;
20138;SDS011;10230;51.502;10.800;2022-12-18T03:31:27;21.07;;;10.33;;
20138;SDS011;10230;51.502;10.800;2022-12-18T03:33:57;17.23;;;8.63;;
20138;SDS011;10230;51.502;10.800;2022-12-18T03:36:26;21.57;;;10.00;;
20138;SDS011;10230;51.502;10.800;2022-12-18T03:38:54;22.40;;;10.87;;
20138;SDS011;10230;51.502;10.800;2022-12-18T03:47:08;18.83;;;10.50;;
20138;SDS011;10230;51.502;10.800;2022-12-18T03:55:43;19.07;;;10.67;;
20138;SDS011;10230;51.502;10.800;2022-12-18T03:58:11;17.60;;;8.50;;
20138;SDS011;10230;51.502;10.800;2022-12-18T04:00:42;26.17;;;11.17;;
20138;SDS011;10230;51.502;10.800;2022-12-18T04:03:08;19.83;;;9.90;;
20138;SDS011;10230;51.502;10.800;2022-12-18T04:05:35;20.07;;;11.37;;
20138;SDS011;10230;51.502;10.800;2022-12-18T04:08:02;20.07;;;10.13;;
20138;SDS011;10230;51.502;10.800;2022-12-18T04:10:28;16.77;;;7.73;;
20138;SDS011;10230;51.502;10.800;2022-12-18T04:12:57;16.57;;;7.70;;
20138;SDS011;10230;51.502;10.800;2022-12-18T04:15:23;18.57;;;8.73;;
20138;SDS011;10230;51.502;10.800;2022-12-18T04:17:49;18.23;;;8.50;;
20138;SDS011;10230;51.502;10.800;2022-12-18T04:20:15;21.30;;;8.17;;
20138;SDS011;10230;51.502;10.800;2022-12-18T04:22:41;19.20;;;10.63;;
20138;SDS011;10230;51.502;10.800;2022-12-18T04:25:07;21.53;;;8.90;;
20138;SDS011;10230;51.502;10.800;2022-12-18T04:27:33;12.67;;;6.90;;
20138;SDS011;10230;51.502;10.800;2022-12-18T04:29:59;20.23;;;8.20;;
20138;SDS011;10230;51.502;10.800;2022-12-18T04:32:25;24.63;;;10.93;;
20138;SDS011;10230;51.502;10.800;2022-12-18T04:34:50;26.27;;;11.40;;
20138;SDS011;10230;51.502;10.800;2022-12-18T04:37:16;21.27;;;11.77;;
20138;SDS011;10230;51.502;10.800;2022-12-18T04:39:42;26.90;;;12.40;;
20138;SDS011;10230;51.502;10.800;2022-12-18T04:42:07;15.90;;;7.63;;
20138;SDS011;10230;51.502;10.800;2022-12-18T04:44:33;16.50;;;7.23;;
20138;SDS011;10230;51.502;10.800;2022-12-18T04:46:59;13.60;;;6.90;;
20138;SDS011;10230;51.502;10.800;2022-12-18T04:49:24;22.83;;;7.60;;
20138;SDS011;10230;51.502;10.800;2022-12-18T04:51:50;18.67;;;8.80;;
20138;SDS011;10230;51.502;10.800;2022-12-18T04:54:16;16.60;;;8.63;;
20138;SDS011;10230;51.502;10.800;2022-12-18T04:56:42;21.80;;;10.50;;
20138;SDS011;10230;51.502;10.800;2022-12-18T04:59:08;16.80;;;7.67;;
20138;SDS011;10230;51.502;10.800;2022-12-18T05:01:33;20.73;;;7.63;;
20138;SDS011;10230;51.502;10.800;2022-12-18T05:03:59;19.03;;;7.03;;
20138;SDS011;10230;51.502;10.800;2022-12-18T05:06:25;20.03;;;9.87;;
20138;SDS011;10230;51.502;10.800;2022-12-18T05:08:51;23.43;;;11.53;;
20138;SDS011;10230;51.502;10.800;2022-12-18T05:11:17;19.50;;;10.60;;
20138;SDS011;10230;51.502;10.800;2022-12-18T05:13:43;26.13;;;10.90;;
20138;SDS011;10230;51.502;10.800;2022-12-18T05:16:09;14.07;;;7.63;;
20138;SDS011;10230;51.502;10.800;2022-12-18T05:18:35;16.43;;;8.43;;
20138;SDS011;10230;51.502;10.800;2022-12-18T05:21:01;17.13;;;7.37;;
20138;SDS011;10230;51.502;10.800;2022-12-18T05:23:27;22.50;;;8.47;;
20138;SDS011;10230;51.502;10.800;2022-12-18T05:25:57;15.90;;;7.63;;
20138;SDS011;10230;51.502;10.800;2022-12-18T05:28:24;17.20;;;7.53;;
20138;SDS011;10230;51.502;10.800;2022-12-18T05:30:52;18.33;;;7.23;;
20138;SDS011;10230;51.502;10.800;2022-12-18T05:33:23;14.63;;;7.83;;
20138;SDS011;10230;51.502;10.800;2022-12-18T05:35:54;18.80;;;10.17;;
20138;SDS011;10230;51.502;10.800;2022-12-18T05:38:22;20.07;;;10.87;;
20138;SDS011;10230;51.502;10.800;2022-12-18T05:40:49;22.73;;;10.13;;
20138;SDS011;10230;51.502;10.800;2022-12-18T05:43:16;22.03;;;11.00;;
20138;SDS011;10230;51.502;10.800;2022-12-18T05:45:41;22.07;;;11.30;;
20138;SDS011;10230;51.502;10.800;2022-12-18T05:48:07;20.50;;;10.10;;
20138;SDS011;10230;51.502;10.800;2022-12-18T05:50:34;18.50;;;8.20;;
20138;SDS011;10230;51.502;10.800;2022-12-18T05:53:01;20.27;;;11.73;;
20138;SDS011;10230;51.502;10.800;2022-12-18T05:55:27;20.30;;;10.60;;
20138;SDS011;10230;51.502;10.800;2022-12-18T05:57:53;20.83;;;8.00;;
20138;SDS011;10230;51.502;10.800;2022-12-18T06:00:18;14.07;;;6.87;;
20138;SDS011;10230;51.502;10.800;2022-12-18T06:02:47;20.40;;;9.60;;
20138;SDS011;10230;51.502;10.800;2022-12-18T06:05:13;15.00;;;8.17;;
20138;SDS011;10230;51.502;10.800;2022-12-18T06:07:39;27.30;;;13.17;;
20138;SDS011;10230;51.502;10.800;2022-12-18T06:10:04;19.93;;;8.70;;
20138;SDS011;10230;51.502;10.800;2022-12-18T06:12:30;17.97;;;7.53;;
20138;SDS011;10230;51.502;10.800;2022-12-18T06:14:58;21.40;;;9.67;;
20138;SDS011;10230;51.502;10.800;2022-12-18T06:17:27;13.80;;;7.07;;
20138;SDS011;10230;51.502;10.800;2022-12-18T06:19:55;20.10;;;10.47;;
20138;SDS011;10230;51.502;10.800;2022-12-18T06:22:21;22.37;;;11.90;;
20138;SDS011;10230;51.502;10.800;2022-12-18T06:24:47;20.87;;;10.37;;
20138;SDS011;10230;51.502;10.800;2022-12-18T06:27:13;21.33;;;11.70;;
20138;SDS011;10230;51.502;10.800;2022-12-18T06:29:39;23.77;;;9.53;;
20138;SDS011;10230;51.502;10.800;2022-12-18T06:32:04;21.07;;;11.57;;
20138;SDS011;10230;51.502;10.800;2022-12-18T06:34:30;25.23;;;11.57;;
20138;SDS011;10230;51.502;10.800;2022-12-18T06:36:57;18.60;;;9.23;;
20138;SDS011;10230;51.502;10.800;2022-12-18T06:39:23;25.23;;;10.83;;
20138;SDS011;10230;51.502;10.800;2022-12-18T06:41:49;19.20;;;10.57;;
20138;SDS011;10230;51.502;10.800;2022-12-18T06:44:14;20.60;;;9.33;;
20138;SDS011;10230;51.502;10.800;2022-12-18T06:46:40;23.47;;;10.07;;
20138;SDS011;10230;51.502;10.800;2022-12-18T06:49:06;25.93;;;11.70;;
20138;SDS011;10230;51.502;10.800;2022-12-18T06:51:31;21.10;;;10.90;;
20138;SDS011;10230;51.502;10.800;2022-12-18T06:53:57;15.40;;;7.17;;
20138;SDS011;10230;51.502;10.800;2022-12-18T06:56:23;20.67;;;10.27;;
20138;SDS011;10230;51.502;10.800;2022-12-18T06:58:48;19.50;;;10.63;;
20138;SDS011;10230;51.502;10.800;2022-12-18T07:01:14;21.80;;;11.37;;
20138;SDS011;10230;51.502;10.800;2022-12-18T07:03:40;23.50;;;10.93;;
20138;SDS011;10230;51.502;10.800;2022-12-18T07:06:06;15.63;;;6.63;;
20138;SDS011;10230;51.502;10.800;2022-12-18T07:08:37;17.87;;;6.60;;
20138;SDS011;10230;51.502;10.800;2022-12-18T07:11:03;15.00;;;5.83;;
20138;SDS011;10230;51.502;10.800;2022-12-18T07:13:29;11.27;;;6.87;;
20138;SDS011;10230;51.502;10.800;2022-12-18T07:15:55;22.00;;;11.23;;
20138;SDS011;10230;51.502;10.800;2022-12-18T07:18:27;15.77;;;7.77;;
20138;SDS011;10230;51.502;10.800;2022-12-18T07:20:53;13.93;;;6.07;;
20138;SDS011;10230;51.502;10.800;2022-12-18T07:23:18;14.73;;;7.10;;
20138;SDS011;10230;51.502;10.800;2022-12-18T07:25:44;18.20;;;8.67;;
20138;SDS011;10230;51.502;10.800;2022-12-18T07:28:09;17.20;;;8.43;;
20138;SDS011;10230;51.502;10.800;2022-12-18T07:30:37;16.90;;;9.17;;
20138;SDS011;10230;51.502;10.800;2022-12-18T07:33:03;17.97;;;8.00;;
20138;SDS011;10230;51.502;10.800;2022-12-18T07:35:29;16.73;;;8.57;;
20138;SDS011;10230;51.502;10.800;2022-12-18T07:37:54;17.27;;;8.77;;
20138;SDS011;10230;51.502;10.800;2022-12-18T07:40:20;24.03;;;8.90;;
20138;SDS011;10230;51.502;10.800;2022-12-18T07:42:46;22.30;;;8.37;;
20138;SDS011;10230;51.502;10.800;2022-12-18T07:45:11;17.63;;;8.37;;
20138;SDS011;10230;51.502;10.800;2022-12-18T07:47:37;23.87;;;12.13;;
20138;SDS011;10230;51.502;10.800;2022-12-18T07:50:03;17.27;;;8.00;;
20138;SDS011;10230;51.502;10.800;2022-12-18T07:52:29;22.33;;;11.37;;
20138;SDS011;10230;51.502;10.800;2022-12-18T07:54:55;16.97;;;8.03;;
20138;SDS011;10230;51.502;10.800;2022-12-18T07:57:21;20.53;;;9.53;;
20138;SDS011;10230;51.502;10.800;2022-12-18T07:59:46;20.33;;;9.23;;
20138;SDS011;10230;51.502;10.800;2022-12-18T08:02:12;20.40;;;8.93;;
20138;SDS011;10230;51.502;10.800;2022-12-18T08:04:37;19.80;;;7.90;;
20138;SDS011;10230;51.502;10.800;2022-12-18T08:07:03;15.27;;;7.37;;
20138;SDS011;10230;51.502;10.800;2022-12-18T08:09:29;22.77;;;11.90;;
20138;SDS011;10230;51.502;10.800;2022-12-18T08:11:54;24.00;;;9.93;;
20138;SDS011;10230;51.502;10.800;2022-12-18T08:14:20;21.10;;;10.33;;
20138;SDS011;10230;51.502;10.800;2022-12-18T08:16:46;20.00;;;9.03;;
20138;SDS011;10230;51.502;10.800;2022-12-18T08:19:11;24.97;;;8.30;;
20138;SDS011;10230;51.502;10.800;2022-12-18T08:21:37;21.83;;;10.20;;
20138;SDS011;10230;51.502;10.800;2022-12-18T08:24:03;31.13;;;12.07;;
20138;SDS011;10230;51.502;10.800;2022-12-18T08:26:29;15.80;;;8.50;;
20138;SDS011;10230;51.502;10.800;2022-12-18T08:28:56;20.10;;;9.43;;
20138;SDS011;10230;51.502;10.800;2022-12-18T08:31:23;18.97;;;8.53;;
20138;SDS011;10230;51.502;10.800;2022-12-18T08:33:50;13.60;;;7.63;;
20138;SDS011;10230;51.502;10.800;2022-12-18T08:36:17;17.40;;;7.00;;
20138;SDS011;10230;51.502;10.800;2022-12-18T08:38:44;16.97;;;7.10;;
20138;SDS011;10230;51.502;10.800;2022-12-18T08:41:11;15.03;;;6.87;;
20138;SDS011;10230;51.502;10.800;2022-12-18T08:43:37;17.67;;;8.00;;
20138;SDS011;10230;51.502;10.800;2022-12-18T08:46:22;19.30;;;7.87;;
20138;SDS011;10230;51.502;10.800;2022-12-18T08:48:50;16.43;;;9.53;;
20138;SDS011;10230;51.502;10.800;2022-12-18T08:51:16;15.40;;;7.83;;
20138;SDS011;10230;51.502;10.800;2022-12-18T08:53:43;20.13;;;7.40;;
20138;SDS011;10230;51.502;10.800;2022-12-18T08:56:09;12.33;;;6.77;;
20138;SDS011;10230;51.502;10.800;2022-12-18T08:58:35;14.97;;;7.00;;
20138;SDS011;10230;51.502;10.800;2022-12-18T09:01:05;14.30;;;7.53;;
20138;SDS011;10230;51.502;10.800;2022-12-18T09:03:33;19.70;;;7.67;;
20138;SDS011;10230;51.502;10.800;2022-12-18T09:05:59;12.93;;;6.73;;
20138;SDS011;10230;51.502;10.800;2022-12-18T09:08:26;13.80;;;6.80;;
20138;SDS011;10230;51.502;10.800;2022-12-18T09:10:52;13.77;;;6.57;;
20138;SDS011;10230;51.502;10.800;2022-12-18T09:13:18;18.17;;;6.97;;
20138;SDS011;10230;51.502;10.800;2022-12-18T09:15:45;12.57;;;6.50;;
20138;SDS011;10230;51.502;10.800;2022-12-18T09:18:12;16.70;;;7.17;;
20138;SDS011;10230;51.502;10.800;2022-12-18T09:20:38;11.33;;;5.40;;
20138;SDS011;10230;51.502;10.800;2022-12-18T09:23:04;17.00;;;6.93;;
20138;SDS011;10230;51.502;10.800;2022-12-18T09:25:31;13.00;;;6.17;;
20138;SDS011;10230;51.502;10.800;2022-12-18T09:28:10;13.53;;;6.40;;
20138;SDS011;10230;51.502;10.800;2022-12-18T09:30:38;13.03;;;6.57;;
20138;SDS011;10230;51.502;10.800;2022-12-18T09:33:05;14.93;;;8.60;;
20138;SDS011;10230;51.502;10.800;2022-12-18T09:35:31;17.93;;;7.00;;
20138;SDS011;10230;51.502;10.800;2022-12-18T09:37:57;16.87;;;7.13;;
20138;SDS011;10230;51.502;10.800;2022-12-18T09:40:23;14.40;;;6.57;;
20138;SDS011;10230;51.502;10.800;2022-12-18T09:42:57;17.00;;;7.93;;
20138;SDS011;10230;51.502;10.800;2022-12-18T09:45:25;17.73;;;8.77;;
20138;SDS011;10230;51.502;10.800;2022-12-18T09:47:52;15.20;;;7.23;;
20138;SDS011;10230;51.502;10.800;2022-12-18T09:50:27;13.97;;;6.20;;
20138;SDS011;10230;51.502;10.800;2022-12-18T09:52:58;14.03;;;5.90;;
20138;SDS011;10230;51.502;10.800;2022-12-18T09:55:30;13.00;;;6.00;;
20138;SDS011;10230;51.502;10.800;2022-12-18T09:58:02;11.27;;;5.37;;
20138;SDS011;10230;51.502;10.800;2022-12-18T10:00:36;10.50;;;6.03;;
20138;SDS011;10230;51.502;10.800;2022-12-18T10:03:14;10.30;;;5.57;;
20138;SDS011;10230;51.502;10.800;2022-12-18T10:08:13;9.70;;;6.10;;
20138;SDS011;10230;51.502;10.800;2022-12-18T10:10:52;13.60;;;7.27;;
20138;SDS011;10230;51.502;10.800;2022-12-18T10:16:03;11.77;;;7.20;;
20138;SDS011;10230;51.502;10.800;2022-12-18T10:21:07;9.17;;;6.67;;
20138;SDS011;10230;51.502;10.800;2022-12-18T10:28:28;9.90;;;6.53;;
20138;SDS011;10230;51.502;10.800;2022-12-18T10:30:56;7.90;;;5.97;;
20138;SDS011;10230;51.502;10.800;2022-12-18T10:33:23;11.43;;;7.50;;
20138;SDS011;10230;51.502;10.800;2022-12-18T10:35:52;10.03;;;7.00;;
20138;SDS011;10230;51.502;10.800;2022-12-18T10:43:23;9.20;;;7.57;;
20138;SDS011;10230;51.502;10.800;2022-12-18T10:48:34;10.23;;;7.47;;
20138;SDS011;10230;51.502;10.800;2022-12-18T10:53:53;8.68;;;6.93;;
20138;SDS011;10230;51.502;10.800;2022-12-18T10:56:20;9.00;;;6.97;;
20138;SDS011;10230;51.502;10.800;2022-12-18T10:58:55;10.25;;;8.13;;
20138;SDS011;10230;51.502;10.800;2022-12-18T11:01:23;11.95;;;8.57;;
20138;SDS011;10230;51.502;10.800;2022-12-18T11:06:21;11.32;;;8.50;;
20138;SDS011;10230;51.502;10.800;2022-12-18T11:11:27;10.90;;;9.15;;
20138;SDS011;10230;51.502;10.800;2022-12-18T11:16:26;11.57;;;9.77;;
20138;SDS011;10230;51.502;10.800;2022-12-18T11:18:52;11.32;;;9.40;;
20138;SDS011;10230;51.502;10.800;2022-12-18T11:21:18;11.35;;;8.30;;
20138;SDS011;10230;51.502;10.800;2022-12-18T11:23:46;11.05;;;8.57;;
20138;SDS011;10230;51.502;10.800;2022-12-18T11:26:13;9.90;;;8.52;;
20138;SDS011;10230;51.502;10.800;2022-12-18T11:28:40;10.07;;;8.77;;
20138;SDS011;10230;51.502;10.800;2022-12-18T11:34:05;10.38;;;8.02;;
20138;SDS011;10230;51.502;10.800;2022-12-18T11:36:31;10.57;;;9.15;;
20138;SDS011;10230;51.502;10.800;2022-12-18T11:38:59;11.75;;;9.73;;
20138;SDS011;10230;51.502;10.800;2022-12-18T11:44:34;13.15;;;10.82;;
20138;SDS011;10230;51.502;10.800;2022-12-18T11:49:43;15.48;;;11.02;;
20138;SDS011;10230;51.502;10.800;2022-12-18T11:52:14;13.38;;;10.68;;
20138;SDS011;10230;51.502;10.800;2022-12-18T11:54:41;16.98;;;12.98;;
20138;SDS011;10230;51.502;10.800;2022-12-18T11:57:24;15.55;;;11.82;;
20138;SDS011;10230;51.502;10.800;2022-12-18T12:00:04;18.50;;;13.25;;
20138;SDS011;10230;51.502;10.800;2022-12-18T12:08:29;17.73;;;12.65;;
20138;SDS011;10230;51.502;10.800;2022-12-18T12:15:48;15.30;;;10.57;;
20138;SDS011;10230;51.502;10.800;2022-12-18T12:21:01;16.65;;;10.68;;
20138;SDS011;10230;51.502;10.800;2022-12-18T12:31:55;18.08;;;11.63;;
20138;SDS011;10230;51.502;10.800;2022-12-18T12:34:39;16.67;;;11.63;;
20138;SDS011;10230;51.502;10.800;2022-12-18T12:40:27;14.53;;;9.73;;
20138;SDS011;10230;51.502;10.800;2022-12-18T12:42:59;14.90;;;10.03;;
20138;SDS011;10230;51.502;10.800;2022-12-18T12:45:44;14.20;;;9.10;;
20138;SDS011;10230;51.502;10.800;2022-12-18T12:48:24;14.27;;;8.60;;
20138;SDS011;10230;51.502;10.800;2022-12-18T12:50:58;14.57;;;8.53;;
20138;SDS011;10230;51.502;10.800;2022-12-18T12:53:32;15.37;;;8.50;;
20138;SDS011;10230;51.502;10.800;2022-12-18T12:56:01;11.73;;;8.60;;
20138;SDS011;10230;51.502;10.800;2022-12-18T12:58:32;14.23;;;8.93;;
20138;SDS011;10230;51.502;10.800;2022-12-18T13:03:39;11.83;;;7.40;;
20138;SDS011;10230;51.502;10.800;2022-12-18T13:06:16;15.37;;;9.07;;
20138;SDS011;10230;51.502;10.800;2022-12-18T13:08:51;12.80;;;8.13;;
20138;SDS011;10230;51.502;10.800;2022-12-18T13:14:22;15.90;;;7.87;;
20138;SDS011;10230;51.502;10.800;2022-12-18T13:19:52;14.40;;;7.47;;
20138;SDS011;10230;51.502;10.800;2022-12-18T13:22:29;13.43;;;7.60;;
20138;SDS011;10230;51.502;10.800;2022-12-18T13:24:56;15.77;;;6.97;;
20138;SDS011;10230;51.502;10.800;2022-12-18T13:33:30;16.27;;;7.67;;
20138;SDS011;10230;51.502;10.800;2022-12-18T13:38:40;13.87;;;6.57;;
20138;SDS011;10230;51.502;10.800;2022-12-18T13:43:55;14.83;;;6.37;;
20138;SDS011;10230;51.502;10.800;2022-12-18T13:46:29;14.17;;;7.80;;
20138;SDS011;10230;51.502;10.800;2022-12-18T13:51:39;10.43;;;5.70;;
20138;SDS011;10230;51.502;10.800;2022-12-18T13:54:13;13.00;;;6.83;;
20138;SDS011;10230;51.502;10.800;2022-12-18T13:56:43;13.10;;;6.40;;
20138;SDS011;10230;51.502;10.800;2022-12-18T14:02:15;12.00;;;6.23;;
20138;SDS011;10230;51.502;10.800;2022-12-18T14:04:44;11.13;;;6.17;;
20138;SDS011;10230;51.502;10.800;2022-12-18T14:07:12;9.83;;;6.00;;
20138;SDS011;10230;51.502;10.800;2022-12-18T14:09:57;10.20;;;5.20;;
20138;SDS011;10230;51.502;10.800;2022-12-18T14:12:30;12.37;;;5.87;;
20138;SDS011;10230;51.502;10.800;2022-12-18T14:20:19;9.47;;;5.87;;
20138;SDS011;10230;51.502;10.800;2022-12-18T14:22:46;12.30;;;6.33;;
20138;SDS011;10230;51.502;10.800;2022-12-18T14:28:04;10.23;;;5.70;;
20138;SDS011;10230;51.502;10.800;2022-12-18T14:30:41;10.07;;;6.13;;
20138;SDS011;10230;51.502;10.800;2022-12-18T14:35:34;8.10;;;4.80;;
20138;SDS011;10230;51.502;10.800;2022-12-18T14:40:45;13.20;;;6.80;;
20138;SDS011;10230;51.502;10.800;2022-12-18T14:43:11;11.03;;;5.97;;
20138;SDS011;10230;51.502;10.800;2022-12-18T14:45:37;10.80;;;5.57;;
20138;SDS011;10230;51.502;10.800;2022-12-18T14:48:52;10.87;;;5.47;;
20138;SDS011;10230;51.502;10.800;2022-12-18T14:50:57;8.57;;;4.70;;
20138;SDS011;10230;51.502;10.800;2022-12-18T14:53:28;8.87;;;4.87;;
20138;SDS011;10230;51.502;10.800;2022-12-18T14:56:10;11.33;;;7.23;;
20138;SDS011;10230;51.502;10.800;2022-12-18T14:58:51;10.67;;;7.40;;
20138;SDS011;10230;51.502;10.800;2022-12-18T15:01:33;10.63;;;6.10;;
20138;SDS011;10230;51.502;10.800;2022-12-18T15:04:26;15.70;;;7.70;;
20138;SDS011;10230;51.502;10.800;2022-12-18T15:07:04;12.63;;;6.67;;
20138;SDS011;10230;51.502;10.800;2022-12-18T15:09:30;12.27;;;7.40;;
20138;SDS011;10230;51.502;10.800;2022-12-18T15:11:57;13.60;;;8.37;;
20138;SDS011;10230;51.502;10.800;2022-12-18T15:16:59;11.33;;;6.60;;
20138;SDS011;10230;51.502;10.800;2022-12-18T15:19:34;12.97;;;7.73;;
20138;SDS011;10230;51.502;10.800;2022-12-18T15:22:03;14.40;;;7.57;;
20138;SDS011;10230;51.502;10.800;2022-12-18T15:24:30;11.70;;;6.50;;
20138;SDS011;10230;51.502;10.800;2022-12-18T15:26:57;14.07;;;6.90;;
20138;SDS011;10230;51.502;10.800;2022-12-18T15:29:24;14.03;;;7.73;;
20138;SDS011;10230;51.502;10.800;2022-12-18T15:31:58;13.20;;;8.07;;
20138;SDS011;10230;51.502;10.800;2022-12-18T15:34:25;14.53;;;6.93;;
20138;SDS011;10230;51.502;10.800;2022-12-18T15:36:52;14.67;;;8.13;;
20138;SDS011;10230;51.502;10.800;2022-12-18T15:39:18;13.43;;;7.20;;
20138;SDS011;10230;51.502;10.800;2022-12-18T15:41:43;11.70;;;5.77;;
20138;SDS011;10230;51.502;10.800;2022-12-18T15:44:29;14.07;;;7.73;;
20138;SDS011;10230;51.502;10.800;2022-12-18T15:46:55;13.37;;;7.83;;
20138;SDS011;10230;51.502;10.800;2022-12-18T15:49:21;18.43;;;8.17;;
20138;SDS011;10230;51.502;10.800;2022-12-18T15:51:48;10.67;;;6.37;;
20138;SDS011;10230;51.502;10.800;2022-12-18T15:54:17;13.10;;;8.00;;
20138;SDS011;10230;51.502;10.800;2022-12-18T15:57:03;13.77;;;7.77;;
20138;SDS011;10230;51.502;10.800;2022-12-18T15:59:47;16.57;;;8.00;;
20138;SDS011;10230;51.502;10.800;2022-12-18T16:02:13;14.30;;;7.63;;
20138;SDS011;10230;51.502;10.800;2022-12-18T16:04:43;15.57;;;7.90;;
20138;SDS011;10230;51.502;10.800;2022-12-18T16:07:10;12.87;;;7.17;;
20138;SDS011;10230;51.502;10.800;2022-12-18T16:09:36;13.57;;;6.87;;
20138;SDS011;10230;51.502;10.800;2022-12-18T16:12:03;12.00;;;7.17;;
20138;SDS011;10230;51.502;10.800;2022-12-18T16:14:30;16.77;;;8.43;;
20138;SDS011;10230;51.502;10.800;2022-12-18T16:16:58;11.70;;;5.53;;
20138;SDS011;10230;51.502;10.800;2022-12-18T16:19:25;11.97;;;6.07;;
20138;SDS011;10230;51.502;10.800;2022-12-18T16:21:51;13.03;;;6.30;;
20138;SDS011;10230;51.502;10.800;2022-12-18T16:24:21;16.97;;;9.23;;
20138;SDS011;10230;51.502;10.800;2022-12-18T16:26:49;13.53;;;6.90;;
20138;SDS011;10230;51.502;10.800;2022-12-18T16:29:16;14.07;;;7.40;;
20138;SDS011;10230;51.502;10.800;2022-12-18T16:31:42;13.83;;;7.00;;
20138;SDS011;10230;51.502;10.800;2022-12-18T16:34:12;14.67;;;6.70;;
20138;SDS011;10230;51.502;10.800;2022-12-18T16:36:39;13.60;;;7.57;;
20138;SDS011;10230;51.502;10.800;2022-12-18T16:39:05;14.57;;;6.70;;
20138;SDS011;10230;51.502;10.800;2022-12-18T16:41:30;12.23;;;6.37;;
20138;SDS011;10230;51.502;10.800;2022-12-18T16:43:57;15.80;;;8.03;;
20138;SDS011;10230;51.502;10.800;2022-12-18T16:46:23;19.43;;;7.40;;